Time;durP1;ratioP1;P1;durP2;ratioP2;P2;SDS_P1;SDS_P2;PMS_P1;PMS_P2;Temp;Humidity;BMP_temperature;BMP_pressure;BME280_temperature;BME280_humidity;BME280_pressure;Samples;Min_cycle;Max_cycle;Signal;HPM_P1;HPM_P2
2023/09/09 00:01:53;;;;;;;5.10;3.73;;;22.30;99.90;;;22.33;62.00;101211.84;6127531;22;96959;-54
2023/09/09 00:04:18;;;;;;;5.33;3.90;;;22.30;99.90;;;22.33;62.71;101210.97;6135628;22;97806;-48
2023/09/09 00:06:45;;;;;;;5.67;4.07;;;22.30;99.90;;;22.34;64.45;101205.47;6139935;22;99000;-48
2023/09/09 00:09:10;;;;;;;4.47;2.80;;;22.30;99.90;;;22.32;62.01;101215.50;6133795;22;98152;-50
2023/09/09 00:11:36;;;;;;;3.47;2.57;;;22.20;99.90;;;22.31;61.82;101215.63;6129652;22;97007;-53
2023/09/09 00:14:02;;;;;;;2.27;2.07;;;22.20;99.90;;;22.33;61.47;101210.97;6134010;22;97634;-48
2023/09/09 00:16:35;;;;;;;3.73;2.60;;;22.30;99.90;;;22.32;61.26;101207.44;6127503;22;97384;-51
2023/09/09 00:19:01;;;;;;;2.87;2.17;;;22.20;99.90;;;22.33;61.31;101210.97;6121764;22;100192;-48
2023/09/09 00:21:27;;;;;;;5.10;3.77;;;22.20;99.90;;;22.32;61.93;101204.75;6131194;22;97751;-50
2023/09/09 00:23:53;;;;;;;3.60;3.00;;;22.30;99.90;;;22.31;61.66;101207.56;6126340;22;103112;-54
2023/09/09 00:26:18;;;;;;;4.90;3.30;;;22.30;99.90;;;22.31;62.08;101205.72;6119716;22;114975;-52
2023/09/09 00:28:44;;;;;;;3.20;2.57;;;22.30;99.90;;;22.32;61.47;101198.53;6133453;22;97055;-51
2023/09/09 00:31:10;;;;;;;3.00;2.50;;;22.30;99.90;;;22.33;62.14;101205.59;6127261;22;105124;-52
2023/09/09 00:33:36;;;;;;;3.30;2.33;;;22.30;99.90;;;22.31;61.68;101207.56;6133293;22;98288;-51
2023/09/09 00:36:02;;;;;;;4.63;2.50;;;22.30;99.90;;;22.31;61.61;101202.19;6130332;22;97800;-49
2023/09/09 00:38:28;;;;;;;3.63;2.83;;;22.30;99.90;;;22.31;61.43;101196.81;6116337;22;98950;-48
2023/09/09 00:41:18;;;;;;;4.77;3.67;;;22.30;99.90;;;22.32;61.66;101196.69;6132314;22;98103;-48
2023/09/09 00:43:46;;;;;;;5.50;3.57;;;22.20;99.90;;;22.33;62.65;101198.41;6102746;22;102621;-50
2023/09/09 00:46:14;;;;;;;6.77;4.17;;;22.20;99.90;;;22.32;62.31;101193.13;6107135;22;102073;-51
2023/09/09 00:48:40;;;;;;;3.50;2.37;;;22.20;99.90;;;22.31;61.68;101191.44;6073374;22;97153;-52
2023/09/09 00:51:07;;;;;;;2.60;2.30;;;22.20;99.90;;;22.29;62.23;101188.00;6098194;22;97349;-52
2023/09/09 00:53:36;;;;;;;3.17;2.37;;;22.20;99.90;;;22.29;61.75;101196.06;6099345;22;97373;-45
2023/09/09 00:56:06;;;;;;;3.30;2.40;;;22.20;99.90;;;22.28;61.53;101187.16;6068072;22;97644;-46
2023/09/09 00:58:32;;;;;;;3.83;2.90;;;22.20;99.90;;;22.26;61.79;101189.06;6084209;22;97505;-54
2023/09/09 01:01:00;;;;;;;4.77;3.73;;;22.20;99.90;;;22.29;61.76;101183.50;6102739;22;97417;-49
2023/09/09 01:03:26;;;;;;;4.37;3.30;;;22.20;99.90;;;22.29;62.02;101188.88;6105707;22;97491;-52
2023/09/09 01:05:53;;;;;;;3.20;2.50;;;22.20;99.90;;;22.28;61.53;101192.53;6098931;22;96850;-49
2023/09/09 01:08:26;;;;;;;3.20;2.40;;;22.20;99.90;;;22.27;61.44;101190.78;6099116;22;97242;-51
2023/09/09 01:10:53;;;;;;;2.80;1.90;;;22.20;99.90;;;22.25;61.60;101188.22;6093105;22;97127;-52
2023/09/09 01:13:19;;;;;;;3.00;2.50;;;22.20;99.90;;;22.25;61.42;101187.34;6117369;22;97136;-48
2023/09/09 01:15:45;;;;;;;2.87;2.00;;;22.20;99.90;;;22.22;61.57;101182.22;6121158;22;97929;-47
2023/09/09 01:18:12;;;;;;;2.17;2.00;;;22.20;99.90;;;22.19;61.49;101188.69;6120569;22;98437;-50
2023/09/09 01:20:40;;;;;;;4.00;2.80;;;22.20;99.90;;;22.19;61.60;101183.31;6111977;22;96958;-50
2023/09/09 01:23:07;;;;;;;3.60;1.70;;;22.20;99.90;;;22.19;61.49;101183.31;6105030;22;97043;-48
2023/09/09 01:25:32;;;;;;;3.00;2.17;;;22.20;99.90;;;22.20;61.68;101185.03;6103406;22;116921;-48
2023/09/09 01:27:59;;;;;;;3.03;2.37;;;22.20;99.90;;;22.22;61.58;101187.59;6098114;22;103466;-45
2023/09/09 01:30:27;;;;;;;1.97;1.67;;;22.20;99.90;;;22.20;61.60;101185.03;6093640;22;97066;-44
2023/09/09 01:32:53;;;;;;;3.20;2.30;;;22.20;99.90;;;22.20;61.58;101179.66;6093110;22;98924;-73
2023/09/09 01:35:19;;;;;;;2.40;1.93;;;22.20;99.90;;;22.22;61.65;101176.84;5872461;22;110337;-74
2023/09/09 01:37:46;;;;;;;3.10;2.20;;;22.20;99.90;;;22.25;61.51;101182.84;6004584;23;97571;-75
2023/09/09 01:40:12;;;;;;;2.80;2.20;;;22.20;99.90;;;22.25;61.40;101182.84;6031556;23;97625;-75
2023/09/09 01:42:40;;;;;;;2.57;2.23;;;22.20;99.90;;;22.26;61.36;101184.56;6040921;23;96985;-75
2023/09/09 01:45:06;;;;;;;3.70;2.67;;;22.20;99.90;;;22.27;61.51;101183.56;6043690;23;97754;-75
2023/09/09 01:47:33;;;;;;;2.77;1.90;;;22.20;99.90;;;22.28;61.44;101176.41;6042188;23;96896;-75
2023/09/09 01:49:59;;;;;;;2.13;1.93;;;22.20;99.90;;;22.24;61.47;101182.97;6013156;23;97438;-75
2023/09/09 01:52:25;;;;;;;3.10;2.07;;;22.20;99.90;;;22.22;61.58;101183.09;6033035;23;97492;-75
2023/09/09 01:54:51;;;;;;;3.07;2.43;;;22.20;99.90;;;22.21;61.61;101184.06;6047030;23;101616;-75
2023/09/09 01:57:19;;;;;;;2.90;2.40;;;22.20;99.90;;;22.21;61.44;101176.00;6051459;23;97434;-75
2023/09/09 01:59:45;;;;;;;3.67;2.60;;;22.20;99.90;;;22.23;61.45;101184.78;6052948;23;97144;-75
2023/09/09 02:02:15;;;;;;;3.47;2.50;;;22.20;99.90;;;22.29;61.43;101190.69;6026026;23;104276;-75
2023/09/09 02:04:42;;;;;;;3.13;2.70;;;22.20;99.90;;;22.29;61.43;101188.88;6051409;23;100513;-75
2023/09/09 02:07:08;;;;;;;3.37;2.47;;;22.20;99.90;;;22.32;61.37;101198.53;6051105;23;97326;-75
2023/09/09 02:09:34;;;;;;;3.40;2.60;;;22.20;99.90;;;22.30;61.33;101195.09;6049487;23;97282;-75
2023/09/09 02:12:03;;;;;;;4.13;2.50;;;22.20;99.90;;;22.30;61.48;101200.47;6050897;23;100948;-75
2023/09/09 02:14:29;;;;;;;3.87;2.70;;;22.20;99.90;;;22.29;61.38;101188.00;6049994;23;97794;-75
2023/09/09 02:16:55;;;;;;;3.17;2.27;;;22.20;99.90;;;22.29;61.47;101190.69;6052072;23;97513;-75
2023/09/09 02:19:21;;;;;;;5.97;2.60;;;22.20;99.90;;;22.27;61.45;101188.94;6044826;23;97874;-75
2023/09/09 02:21:47;;;;;;;4.70;3.20;;;22.20;99.90;;;22.29;61.15;101193.38;6024776;23;99584;-75
2023/09/09 02:24:13;;;;;;;3.17;2.80;;;22.20;99.90;;;22.29;61.25;101193.38;6043937;23;100258;-75
2023/09/09 02:27:28;;;;;;;4.00;3.30;;;22.20;99.90;;;22.30;61.35;101192.41;6067044;23;96803;-75
2023/09/09 02:29:54;;;;;;;4.97;3.40;;;22.20;99.90;;;22.20;61.51;101198.47;6109120;22;96926;-49
2023/09/09 02:32:20;;;;;;;3.90;2.67;;;22.00;99.90;;;22.14;62.14;101201.63;6117661;22;97387;-50
2023/09/09 02:34:46;;;;;;;4.17;3.00;;;21.90;99.90;;;22.12;62.15;101203.56;6118226;22;115372;-50
2023/09/09 02:37:20;;;;;;;3.00;2.10;;;21.90;99.90;;;22.12;62.04;101192.81;6116870;22;97447;-51
2023/09/09 02:39:48;;;;;;;3.13;2.70;;;22.00;99.90;;;22.13;61.92;101197.22;6113944;22;100152;-52
2023/09/09 02:42:17;;;;;;;4.27;2.83;;;22.00;99.90;;;22.14;61.83;101190.88;6116693;22;105656;-49
2023/09/09 02:44:43;;;;;;;3.80;2.80;;;22.00;99.90;;;22.14;62.11;101195.41;6115720;22;101667;-48
2023/09/09 02:47:11;;;;;;;4.63;2.63;;;22.00;99.90;;;22.13;62.01;101186.50;6117001;22;97020;-47
2023/09/09 02:49:39;;;;;;;3.27;2.47;;;22.00;99.90;;;22.15;62.16;101189.06;6115631;22;96825;-48
2023/09/09 02:52:06;;;;;;;2.80;2.47;;;22.00;99.90;;;22.15;61.79;101197.97;6117125;22;97288;-45
2023/09/09 02:54:33;;;;;;;3.80;2.53;;;22.10;99.90;;;22.16;61.93;101193.44;6115145;22;98711;-46
2023/09/09 02:56:59;;;;;;;3.27;2.23;;;22.10;99.90;;;22.16;61.89;101182.72;6115787;22;96782;-46
2023/09/09 02:59:26;;;;;;;3.53;2.50;;;22.10;99.90;;;22.15;61.90;101187.22;6115279;22;96792;-46
2023/09/09 03:01:52;;;;;;;2.43;2.13;;;22.10;99.90;;;22.14;61.84;101185.50;6116279;22;97432;-47
2023/09/09 03:04:19;;;;;;;2.57;2.13;;;22.10;99.90;;;22.14;61.94;101179.28;6117232;22;97308;-45
2023/09/09 03:06:45;;;;;;;3.17;2.20;;;22.10;99.90;;;22.15;61.87;101179.16;6091452;22;96849;-50
2023/09/09 03:09:13;;;;;;;3.03;2.73;;;22.10;99.90;;;22.15;61.59;101179.16;6117035;22;97083;-47
2023/09/09 03:11:39;;;;;;;2.73;1.93;;;22.10;99.90;;;22.14;61.93;101174.78;6115598;22;97694;-49
2023/09/09 03:14:05;;;;;;;3.10;2.40;;;22.10;99.90;;;22.16;61.81;101177.34;6116752;22;103082;-51
2023/09/09 03:16:30;;;;;;;3.80;2.70;;;22.10;99.90;;;22.17;61.79;101174.53;6114360;22;111972;-45
2023/09/09 03:18:56;;;;;;;2.77;2.30;;;22.10;99.90;;;22.19;61.63;101182.47;6117465;22;97010;-47
2023/09/09 03:21:23;;;;;;;3.80;3.10;;;22.10;99.90;;;22.19;61.65;101180.63;6114718;22;110099;-43
2023/09/09 03:23:49;;;;;;;2.70;2.43;;;22.10;99.90;;;22.18;61.62;101181.59;6087461;22;118713;-49
2023/09/09 03:26:18;;;;;;;3.23;2.73;;;22.10;99.90;;;22.16;61.84;101177.34;6118830;22;97465;-45
2023/09/09 03:28:45;;;;;;;3.73;2.83;;;22.10;99.90;;;22.18;61.71;101178.94;6113689;22;98030;-47
2023/09/09 03:31:11;;;;;;;2.73;2.40;;;22.10;99.90;;;22.20;61.70;101179.66;6116444;22;105221;-44
2023/09/09 03:33:37;;;;;;;2.60;2.40;;;22.10;99.90;;;22.21;61.63;101181.38;6087086;22;107190;-44
2023/09/09 03:36:03;;;;;;;3.10;2.40;;;22.10;99.90;;;22.21;61.65;101181.38;6113359;22;97152;-47
2023/09/09 03:38:29;;;;;;;3.10;2.40;;;22.10;99.90;;;22.21;61.46;101178.69;6088438;22;96792;-46
2023/09/09 03:40:55;;;;;;;5.67;3.77;;;22.10;99.90;;;22.20;60.65;101190.41;6107346;22;98708;-48
2023/09/09 03:43:21;;;;;;;3.83;3.13;;;22.10;99.90;;;22.18;61.21;101186.97;6115398;22;97007;-44
2023/09/09 03:45:46;;;;;;;3.03;2.37;;;22.00;99.90;;;22.13;61.78;101186.50;6119755;22;97087;-46
2023/09/09 03:48:12;;;;;;;2.77;2.27;;;22.00;99.90;;;22.12;61.97;101187.44;6091509;22;97484;-45
2023/09/09 03:50:38;;;;;;;3.73;2.80;;;22.00;99.90;;;22.11;62.02;101191.09;6113579;22;96777;-44
2023/09/09 03:53:04;;;;;;;4.03;2.30;;;22.00;99.90;;;22.10;61.96;101189.38;6114274;22;98697;-44
2023/09/09 03:55:29;;;;;;;3.60;3.13;;;21.90;99.90;;;22.09;61.95;101187.66;6102788;22;97950;-44
2023/09/09 03:57:55;;;;;;;2.90;2.27;;;21.90;99.90;;;22.08;62.02;101188.66;6116650;22;97176;-46
2023/09/09 04:00:21;;;;;;;3.43;2.50;;;21.90;99.90;;;22.08;62.07;101191.31;6081620;22;98718;-44
2023/09/09 04:02:47;;;;;;;3.10;2.07;;;22.00;99.90;;;22.08;61.94;101190.47;6110177;22;107293;-45
2023/09/09 04:05:13;;;;;;;4.07;2.50;;;21.90;99.90;;;22.07;61.67;101186.94;6118505;22;97357;-46
2023/09/09 04:07:43;;;;;;;2.97;2.60;;;21.90;99.90;;;22.07;62.10;101195.00;6113375;22;96980;-44
2023/09/09 04:10:09;;;;;;;3.27;2.80;;;21.90;99.90;;;22.04;62.01;101200.56;6112449;22;97180;-43
2023/09/09 04:12:35;;;;;;;4.93;2.73;;;21.90;99.90;;;22.03;62.22;101193.50;6113534;22;97326;-44
2023/09/09 04:15:01;;;;;;;2.73;2.40;;;21.90;99.90;;;22.02;62.11;101194.47;6114453;22;107463;-43
2023/09/09 04:17:26;;;;;;;4.20;2.83;;;21.90;99.90;;;22.03;62.13;101190.78;6118301;22;97112;-49
2023/09/09 04:19:52;;;;;;;3.87;2.60;;;21.90;99.90;;;22.02;62.20;101186.41;6119630;22;97582;-44
2023/09/09 04:22:18;;;;;;;2.50;2.30;;;21.90;99.90;;;22.02;62.30;101185.53;6119366;22;97537;-44
2023/09/09 04:24:44;;;;;;;4.60;3.43;;;21.90;99.90;;;22.00;61.41;101188.34;6080200;22;102060;-46
2023/09/09 04:27:09;;;;;;;2.83;2.30;;;21.90;99.90;;;21.99;62.28;101186.63;6114108;22;97372;-44
2023/09/09 04:29:35;;;;;;;2.57;2.30;;;21.90;99.90;;;21.99;62.42;101192.00;6111836;22;110848;-44
2023/09/09 04:32:01;;;;;;;2.90;2.43;;;21.80;99.90;;;21.98;61.89;101192.94;6115499;22;96737;-46
2023/09/09 04:34:27;;;;;;;3.23;2.53;;;21.90;99.90;;;21.98;62.45;101195.63;6115240;22;112274;-48
2023/09/09 04:36:52;;;;;;;2.33;2.07;;;21.80;99.90;;;21.99;62.39;101192.00;6115818;22;101032;-46
2023/09/09 04:39:18;;;;;;;5.17;3.77;;;21.80;99.90;;;21.97;60.95;101188.56;6117873;22;107065;-44
2023/09/09 04:41:44;;;;;;;3.63;2.80;;;21.80;99.90;;;21.93;62.13;101197.81;6114548;22;108061;-45
2023/09/09 04:44:10;;;;;;;4.53;2.97;;;21.70;99.90;;;21.91;61.44;101194.41;6115319;22;97191;-50
2023/09/09 04:46:36;;;;;;;4.27;2.80;;;21.60;99.90;;;21.89;62.62;101199.03;6114772;22;116342;-46
2023/09/09 04:49:05;;;;;;;5.50;2.80;;;21.70;99.90;;;21.89;62.69;101196.34;6115107;22;97139;-46
2023/09/09 04:51:31;;;;;;;3.50;2.60;;;21.70;99.90;;;21.91;62.58;101199.78;6115750;22;97411;-49
2023/09/09 04:53:57;;;;;;;4.03;2.63;;;21.80;99.90;;;21.91;62.10;101207.81;6115820;22;97161;-46
2023/09/09 04:56:23;;;;;;;3.20;2.10;;;21.80;99.90;;;21.90;62.61;101201.59;6111252;22;97106;-49
2023/09/09 04:58:49;;;;;;;2.80;2.37;;;21.70;99.90;;;21.91;62.50;101203.31;6116833;22;97204;-45
2023/09/09 05:01:15;;;;;;;3.77;2.60;;;21.80;99.90;;;21.91;62.26;101210.50;6116435;22;97075;-45
2023/09/09 05:03:41;;;;;;;3.07;2.37;;;21.70;99.90;;;21.88;61.92;101210.75;6115109;22;97088;-45
2023/09/09 05:06:07;;;;;;;3.77;2.40;;;21.70;99.90;;;21.86;62.83;101210.00;6117953;22;105758;-44
2023/09/09 05:08:33;;;;;;;2.60;2.30;;;21.70;99.90;;;21.87;62.81;101214.41;6116323;22;97857;-47
2023/09/09 05:10:59;;;;;;;2.70;2.03;;;21.70;99.90;;;21.87;62.57;101211.72;6115588;22;97251;-43
2023/09/09 05:13:25;;;;;;;3.30;2.33;;;21.70;99.90;;;21.88;62.69;101210.75;6115274;22;99902;-44
2023/09/09 05:15:51;;;;;;;2.47;2.07;;;21.70;99.90;;;21.88;62.73;101216.97;6117459;22;97663;-51
2023/09/09 05:18:17;;;;;;;3.93;2.53;;;21.70;99.90;;;21.89;62.74;101212.47;6091741;22;99431;-47
2023/09/09 05:20:44;;;;;;;3.70;2.90;;;21.70;99.90;;;21.88;61.26;101213.44;6118166;22;97225;-46
2023/09/09 05:23:09;;;;;;;2.57;2.30;;;21.70;99.90;;;21.85;62.66;101217.22;6115578;22;106774;-45
2023/09/09 05:25:35;;;;;;;4.00;2.43;;;21.60;99.90;;;21.86;62.91;101226.13;6077110;22;97396;-46
2023/09/09 05:28:01;;;;;;;2.83;2.57;;;21.70;99.90;;;21.85;62.91;101227.09;6111984;22;101582;-45
2023/09/09 05:30:27;;;;;;;3.17;2.20;;;21.60;99.90;;;21.86;62.91;101228.81;6117307;22;97053;-46
2023/09/09 05:32:53;;;;;;;2.50;2.30;;;21.70;99.90;;;21.86;62.85;101224.28;6116777;22;98066;-44
2023/09/09 05:35:18;;;;;;;3.80;2.50;;;21.60;99.90;;;21.86;62.68;101228.81;6116713;22;107297;-47
2023/09/09 05:37:45;;;;;;;3.07;2.33;;;21.70;99.90;;;21.86;62.86;101234.19;6118879;22;97627;-44
2023/09/09 05:40:11;;;;;;;2.70;2.47;;;21.70;99.90;;;21.86;62.80;101239.56;6111039;22;97645;-43
2023/09/09 05:42:39;;;;;;;3.07;2.63;;;21.70;99.90;;;21.85;62.25;101243.22;6117739;22;96741;-46
2023/09/09 05:45:08;;;;;;;3.00;2.37;;;21.60;99.90;;;21.84;62.87;101242.31;6117145;22;97127;-48
2023/09/09 05:47:35;;;;;;;2.67;2.00;;;21.60;99.90;;;21.84;62.78;101241.47;6111943;22;96908;-47
2023/09/09 05:50:01;;;;;;;3.70;2.43;;;21.70;99.90;;;21.87;62.82;101246.63;6110603;22;98046;-46
2023/09/09 05:52:27;;;;;;;3.83;2.40;;;21.70;99.90;;;21.88;62.83;101248.34;6117197;22;97062;-47
2023/09/09 05:54:53;;;;;;;2.93;2.63;;;21.70;99.90;;;21.89;62.60;101250.06;6114804;22;96788;-45
2023/09/09 05:57:19;;;;;;;3.20;2.20;;;21.70;99.90;;;21.89;62.66;101247.38;6118004;22;98527;-48
2023/09/09 05:59:45;;;;;;;4.13;3.17;;;21.70;99.90;;;21.90;62.60;101252.63;6116286;22;97595;-46
2023/09/09 06:02:11;;;;;;;2.93;2.50;;;21.70;99.90;;;21.88;62.83;101259.09;6113315;22;97254;-48
2023/09/09 06:04:37;;;;;;;3.80;2.63;;;21.70;99.90;;;21.88;62.78;101253.72;6095975;22;102466;-47
2023/09/09 06:07:03;;;;;;;3.67;2.70;;;21.70;99.90;;;21.80;63.48;101256.09;6091063;22;98953;-44
2023/09/09 06:09:29;;;;;;;2.87;2.13;;;21.50;99.90;;;21.80;63.19;101256.09;6087289;22;97397;-43
2023/09/09 06:11:55;;;;;;;3.63;2.33;;;21.60;99.90;;;21.82;63.66;101265.75;6115969;22;97329;-45
2023/09/09 06:14:20;;;;;;;3.60;2.87;;;21.60;99.90;;;21.81;63.83;101266.72;6095372;22;97776;-48
2023/09/09 06:16:46;;;;;;;3.90;2.97;;;21.60;99.90;;;21.80;63.77;101266.84;6097282;22;121365;-43
2023/09/09 06:19:12;;;;;;;3.77;2.47;;;21.50;99.90;;;21.80;63.80;101272.19;6116526;22;104021;-43
2023/09/09 06:21:38;;;;;;;3.67;2.90;;;21.50;99.90;;;21.80;64.19;101272.19;6114695;22;97613;-44
2023/09/09 06:24:04;;;;;;;6.70;3.20;;;21.50;99.90;;;21.80;64.03;101272.19;6115404;22;99081;-46
2023/09/09 06:26:33;;;;;;;4.23;2.67;;;21.60;99.90;;;21.81;63.99;101268.53;6113183;22;97369;-44
2023/09/09 06:28:58;;;;;;;5.67;3.87;;;21.60;99.90;;;21.80;64.14;101267.69;6115544;22;97945;-43
2023/09/09 06:31:24;;;;;;;4.00;3.23;;;21.50;99.90;;;21.80;64.50;101266.84;6115148;22;97480;-45
2023/09/09 06:33:50;;;;;;;6.20;4.27;;;21.50;99.90;;;21.80;65.09;101277.56;6115917;22;97389;-45
2023/09/09 06:36:16;;;;;;;5.63;4.30;;;21.50;99.90;;;21.80;64.16;101277.56;6117210;22;103536;-46
2023/09/09 06:38:43;;;;;;;4.93;3.67;;;21.50;99.90;;;21.79;64.80;101281.22;6114978;22;101187;-45
2023/09/09 06:41:08;;;;;;;8.20;4.47;;;21.50;99.90;;;21.76;65.25;101270.72;6114681;22;97388;-45
2023/09/09 06:43:34;;;;;;;5.80;3.90;;;21.50;99.90;;;21.72;65.63;101274.59;6116144;22;96961;-47
2023/09/09 06:46:00;;;;;;;4.70;3.10;;;21.40;99.90;;;21.73;64.51;101270.94;6114498;22;96890;-45
2023/09/09 06:48:26;;;;;;;4.80;3.83;;;21.50;99.90;;;21.72;66.01;101274.59;6112950;22;110974;-45
2023/09/09 06:50:52;;;;;;;3.67;2.50;;;21.40;99.90;;;21.72;64.93;101274.59;6115593;22;100979;-45
2023/09/09 06:53:18;;;;;;;2.80;2.10;;;21.40;99.90;;;21.74;63.71;101276.19;6118616;22;97060;-43
2023/09/09 06:55:44;;;;;;;5.90;3.97;;;21.50;99.90;;;21.78;64.94;101284.88;6114471;22;101112;-45
2023/09/09 06:58:12;;;;;;;2.80;2.30;;;21.60;99.90;;;21.80;63.42;101283.81;6116047;22;96860;-44
2023/09/09 07:00:38;;;;;;;3.30;2.50;;;21.60;99.90;;;21.84;63.26;101296.03;6116580;22;97370;-45
2023/09/09 07:03:05;;;;;;;3.70;2.70;;;21.70;99.90;;;21.90;63.33;101300.97;6119205;22;96953;-45
2023/09/09 07:05:34;;;;;;;8.50;6.23;;;21.80;99.90;;;21.94;63.95;101291.72;6118116;22;97120;-43
2023/09/09 07:08:00;;;;;;;5.13;3.87;;;21.80;99.90;;;21.96;63.83;101296.97;6119149;22;97283;-44
2023/09/09 07:10:26;;;;;;;6.47;4.37;;;21.80;99.90;;;21.95;64.97;101293.41;6122379;22;96819;-45
2023/09/09 07:12:53;;;;;;;4.37;2.83;;;21.80;99.90;;;21.95;63.05;101297.94;6118828;22;97496;-49
2023/09/09 07:15:19;;;;;;;2.20;2.00;;;21.80;99.90;;;21.96;63.07;101299.66;6117880;22;100919;-47
2023/09/09 07:17:48;;;;;;;5.37;2.53;;;21.80;99.90;;;21.98;62.75;101298.56;6121097;22;97369;-46
2023/09/09 07:20:15;;;;;;;3.47;2.37;;;21.90;99.90;;;22.00;62.75;101301.16;6116571;22;96772;-49
2023/09/09 07:22:41;;;;;;;3.30;2.30;;;21.90;99.90;;;21.98;62.73;101297.69;6113951;22;97165;-45
2023/09/09 07:25:07;;;;;;;8.30;3.57;;;22.00;99.90;;;22.05;62.54;101287.38;6116513;22;102391;-47
2023/09/09 07:27:33;;;;;;;4.17;2.53;;;22.00;99.90;;;22.03;62.56;101297.38;6117795;22;100413;-48
2023/09/09 07:29:59;;;;;;;5.70;3.10;;;22.00;99.90;;;22.04;62.38;101294.59;6119380;22;96639;-48
2023/09/09 07:32:25;;;;;;;5.20;3.73;;;22.00;99.90;;;22.09;62.58;101289.75;6118801;22;97300;-47
2023/09/09 07:34:51;;;;;;;3.27;2.57;;;22.10;99.90;;;22.05;62.42;101285.59;6089815;22;99264;-48
2023/09/09 07:37:18;;;;;;;4.13;2.93;;;22.10;99.90;;;22.06;62.41;101295.34;6102986;22;106811;-52
2023/09/09 07:39:46;;;;;;;5.20;3.10;;;22.10;99.90;;;22.12;62.09;101297.56;6103660;22;97412;-52
2023/09/09 07:42:14;;;;;;;5.83;3.87;;;22.10;99.90;;;22.17;61.92;101297.25;6103404;22;97621;-50
2023/09/09 07:44:41;;;;;;;4.83;3.53;;;22.10;99.90;;;22.21;61.96;101304.97;6102381;22;97651;-53
2023/09/09 07:47:08;;;;;;;4.80;3.87;;;22.10;99.90;;;22.24;61.64;101304.72;6098437;22;97283;-47
2023/09/09 07:49:34;;;;;;;4.10;3.30;;;22.20;99.90;;;22.24;61.68;101299.34;6101101;22;97560;-47
2023/09/09 07:52:03;;;;;;;3.53;3.07;;;22.20;99.90;;;22.26;61.88;101305.47;6094637;22;97816;-46
2023/09/09 07:54:30;;;;;;;4.00;3.20;;;22.20;99.90;;;22.22;61.67;101293.25;6101448;22;97787;-46
2023/09/09 07:56:58;;;;;;;4.63;3.23;;;22.20;99.90;;;22.24;61.81;101301.19;6102049;22;97294;-43
2023/09/09 07:59:25;;;;;;;5.67;4.13;;;22.20;99.90;;;22.27;62.10;101299.13;6101519;22;97573;-45
2023/09/09 08:01:51;;;;;;;4.63;3.33;;;22.20;99.90;;;22.33;62.47;101302.34;6111540;22;97250;-48
2023/09/09 08:04:16;;;;;;;4.93;3.87;;;22.30;99.90;;;22.36;61.71;101307.50;6106555;22;97043;-46
2023/09/09 08:06:45;;;;;;;5.40;3.70;;;22.30;99.90;;;22.40;61.64;101304.44;6101012;22;98068;-46
2023/09/09 08:09:11;;;;;;;3.72;3.05;;;22.30;99.90;;;22.32;61.50;101301.50;6103662;22;97380;-47
2023/09/09 08:11:37;;;;;;;3.43;2.70;;;22.30;99.90;;;22.31;61.62;101304.28;6081931;22;98235;-46
2023/09/09 08:14:03;;;;;;;2.57;2.30;;;22.30;99.90;;;22.26;61.58;101302.78;6089633;22;98846;-44
2023/09/09 08:16:30;;;;;;;3.50;3.20;;;22.30;99.90;;;22.29;61.74;101306.25;6102523;22;98007;-46
2023/09/09 08:18:57;;;;;;;2.77;2.20;;;22.30;99.90;;;22.20;61.94;101307.78;6104376;22;97447;-44
2023/09/09 08:21:23;;;;;;;4.37;2.40;;;22.30;99.90;;;22.17;62.04;101303.50;6106758;22;96947;-48
2023/09/09 08:23:49;;;;;;;3.97;2.37;;;22.20;99.90;;;22.19;61.97;101303.38;6111107;22;97685;-43
2023/09/09 08:26:15;;;;;;;3.53;2.57;;;22.20;99.90;;;22.20;62.01;101307.78;6106097;22;97085;-47
2023/09/09 08:28:40;;;;;;;2.50;2.27;;;22.20;99.90;;;22.20;61.77;101302.41;6104409;22;97172;-45
2023/09/09 08:31:06;;;;;;;1.67;1.30;;;22.20;99.90;;;22.16;61.98;101309.84;6097465;22;97065;-44
2023/09/09 08:33:32;;;;;;;6.33;4.03;;;22.20;99.90;;;22.21;63.48;101313.03;6077844;22;109748;-49
2023/09/09 08:35:59;;;;;;;5.13;3.33;;;22.20;99.90;;;22.27;61.77;101315.25;6100057;22;97897;-44
2023/09/09 08:38:25;;;;;;;4.27;3.10;;;22.30;99.90;;;22.20;61.92;101308.63;6098393;22;97192;-43
2023/09/09 08:41:45;;;;;;;6.13;4.00;;;22.30;99.90;;;22.41;63.17;101313.38;6103182;22;97085;-44
2023/09/09 08:44:31;;;;;;;6.07;4.68;;;22.40;99.90;;;22.50;61.97;101299.25;6093890;22;104320;-43
2023/09/09 08:46:57;;;;;;;7.10;4.80;;;22.50;99.90;;;22.53;62.90;101309.75;6103349;22;100335;-48
2023/09/09 08:49:28;;;;;;;3.90;3.20;;;22.50;99.90;;;22.50;61.41;101299.25;6107616;22;97531;-46
2023/09/09 08:52:03;;;;;;;6.38;3.50;;;22.50;99.90;;;22.49;62.82;101298.38;6101490;22;96992;-45
2023/09/09 08:54:29;;;;;;;8.17;4.37;;;22.50;99.90;;;22.50;61.71;101299.25;6082860;22;98738;-45
2023/09/09 08:56:57;;;;;;;4.73;4.23;;;22.50;99.90;;;22.56;64.41;101306.84;6101260;22;98458;-47
2023/09/09 08:59:25;;;;;;;8.60;4.27;;;22.60;99.90;;;22.49;61.48;101302.91;6096365;22;96958;-46
2023/09/09 09:01:52;;;;;;;6.03;3.43;;;22.50;99.90;;;22.50;61.38;101305.47;6109959;22;97141;-47
2023/09/09 09:04:19;;;;;;;3.23;2.77;;;22.60;99.90;;;22.40;61.57;101304.44;6103635;22;103309;-44
2023/09/09 09:06:48;;;;;;;3.50;2.27;;;22.50;99.90;;;22.39;61.45;101307.25;6109719;22;97227;-45
2023/09/09 09:09:17;;;;;;;4.80;3.43;;;22.40;99.90;;;22.45;61.31;101306.81;6106846;22;97306;-49
2023/09/09 09:11:44;;;;;;;4.10;3.10;;;22.50;99.90;;;22.41;61.54;101316.91;6105892;22;96949;-44
2023/09/09 09:14:10;;;;;;;6.20;4.60;;;22.40;99.90;;;22.52;64.33;101316.09;6109135;22;99460;-48
2023/09/09 09:16:40;;;;;;;8.83;4.50;;;22.50;99.90;;;22.57;64.54;101311.25;6107817;22;97567;-44
2023/09/09 09:19:17;;;;;;;5.15;3.35;;;22.60;99.90;;;22.52;61.29;101308.03;6102845;22;97083;-48
2023/09/09 09:21:43;;;;;;;5.40;4.10;;;22.60;99.90;;;22.49;61.24;101302.91;6107724;22;96925;-47
2023/09/09 09:24:09;;;;;;;6.18;3.58;;;22.50;99.90;;;22.46;61.03;101309.38;6080612;22;98149;-44
2023/09/09 09:26:35;;;;;;;4.95;3.78;;;22.50;99.90;;;22.43;61.32;101309.63;6102916;22;97412;-47
2023/09/09 09:29:06;;;;;;;4.07;3.00;;;22.50;99.90;;;22.47;61.14;101308.41;6108861;22;97162;-44
2023/09/09 09:31:32;;;;;;;7.78;5.38;;;22.50;99.90;;;22.48;61.43;101309.25;6100797;22;97370;-47
2023/09/09 09:33:59;;;;;;;6.47;4.10;;;22.50;99.90;;;22.47;61.38;101305.72;6107469;22;97709;-43
2023/09/09 09:36:26;;;;;;;6.93;4.15;;;22.50;99.90;;;22.46;61.11;101303.16;6103347;22;97393;-44
2023/09/09 09:38:53;;;;;;;4.72;4.28;;;22.50;99.90;;;22.49;61.09;101303.75;6113485;22;97859;-45
2023/09/09 09:41:21;;;;;;;5.43;3.53;;;22.50;99.90;;;22.50;61.17;101304.63;6113208;22;97543;-49
2023/09/09 09:43:49;;;;;;;5.10;4.50;;;22.50;99.90;;;22.60;61.57;101299.41;6081624;22;97542;-46
2023/09/09 09:46:22;;;;;;;8.40;4.70;;;22.60;99.90;;;22.61;60.96;101296.59;6107066;22;97228;-49
2023/09/09 09:48:49;;;;;;;3.65;2.78;;;22.70;99.90;;;22.52;61.22;101292.78;6107127;22;97673;-45
2023/09/09 09:51:16;;;;;;;4.95;4.40;;;22.60;99.90;;;22.53;61.22;101293.63;6065868;22;97791;-46
2023/09/09 09:53:53;;;;;;;4.10;2.88;;;22.60;99.90;;;22.47;61.15;101289.59;6102609;22;97021;-44
2023/09/09 09:56:20;;;;;;;5.22;3.25;;;22.60;99.90;;;22.45;61.21;101290.69;6104271;22;100641;-47
2023/09/09 09:58:49;;;;;;;7.07;4.38;;;22.50;99.90;;;22.48;62.14;101295.81;6109520;22;97333;-44
2023/09/09 10:01:15;;;;;;;6.75;3.88;;;22.50;99.90;;;22.46;61.30;101287.88;6104740;22;96964;-44
2023/09/09 10:03:55;;;;;;;5.88;3.38;;;22.50;99.90;;;22.47;61.18;101291.41;6103527;22;96737;-44
2023/09/09 10:06:28;;;;;;;5.50;3.58;;;22.50;99.90;;;22.46;61.01;101284.34;6106933;22;99747;-45
2023/09/09 10:09:38;;;;;;;8.57;3.90;;;22.50;99.90;;;22.43;61.17;101293.50;6102947;22;97175;-46
2023/09/09 10:12:19;;;;;;;8.18;4.25;;;22.50;99.90;;;22.46;62.03;101287.03;6106011;22;97546;-45